Time;durP1;ratioP1;P1;durP2;ratioP2;P2;SDS_P1;SDS_P2;PMS_P1;PMS_P2;Temp;Humidity;BMP_temperature;BMP_pressure;BME280_temperature;BME280_humidity;BME280_pressure;Samples;Min_cycle;Max_cycle;Signal;HPM_P1;HPM_P2
2021/06/04 16:40:15;;;;;;;2.13;1.67;;;;;;;19.16;51.98;94141.03;5108690;27;20182;-37
2021/06/04 16:42:40;;;;;;;1.73;1.63;;;;;;;19.09;52.58;94136.31;5112704;28;20046;-37
2021/06/04 16:45:06;;;;;;;1.45;1.17;;;;;;;19.12;53.24;94137.19;5104942;28;20482;-38
2021/06/04 16:47:32;;;;;;;1.70;1.17;;;;;;;19.11;52.59;94144.09;5105286;28;20030;-37
2021/06/04 16:49:57;;;;;;;1.13;1.13;;;;;;;19.11;52.83;94146.91;5104254;28;20024;-40
2021/06/04 16:52:23;;;;;;;19.05;8.95;;;;;;;19.08;52.72;94146.00;5105703;28;20030;-37
2021/06/04 16:54:48;;;;;;;2.05;1.85;;;;;;;19.02;52.43;94144.81;5105476;28;20020;-37
2021/06/04 16:57:15;;;;;;;2.15;1.40;;;;;;;18.97;53.38;94143.06;5121273;27;20031;-38
2021/06/04 16:59:41;;;;;;;1.70;1.33;;;;;;;18.84;54.96;94144.25;5127551;27;20103;-38
2021/06/04 17:02:07;;;;;;;1.95;1.40;;;;;;;18.56;55.45;94139.31;5112063;27;20035;-37
2021/06/04 17:04:33;;;;;;;2.45;1.35;;;;;;;18.53;55.28;94146.81;5121479;28;20109;-38
2021/06/04 17:06:59;;;;;;;1.33;1.17;;;;;;;18.41;55.38;94151.44;5125308;27;20057;-38
2021/06/04 17:09:24;;;;;;;1.95;1.52;;;;;;;18.38;56.19;94147.03;5126255;28;20510;-37
2021/06/04 17:11:50;;;;;;;1.27;0.88;;;;;;;18.27;56.19;94147.59;5125744;27;20088;-38
2021/06/04 17:14:15;;;;;;;1.35;1.15;;;;;;;18.25;56.02;94153.03;5110715;28;20407;-38
2021/06/04 17:16:41;;;;;;;1.58;1.45;;;;;;;18.27;56.39;94155.22;5113190;27;20031;-37
2021/06/04 17:19:12;;;;;;;2.80;1.75;;;;;;;18.28;56.44;94157.44;5103572;28;20031;-38
2021/06/04 17:21:43;;;;;;;1.38;1.27;;;;;;;18.26;56.84;94154.47;5104607;28;20363;-38
2021/06/04 17:24:10;;;;;;;1.45;1.33;;;;;;;18.23;56.90;94146.53;5104401;28;20106;-37
2021/06/04 17:26:35;;;;;;;1.17;1.08;;;;;;;18.19;57.03;94156.06;5104377;28;20039;-38
2021/06/04 17:29:01;;;;;;;1.25;1.15;;;;;;;18.17;57.05;94155.91;5104315;28;20019;-38
2021/06/04 17:31:27;;;;;;;2.33;1.35;;;;;;;18.25;57.93;94152.28;5104113;28;20020;-38
2021/06/04 17:33:53;;;;;;;1.90;1.63;;;;;;;18.22;58.27;94159.75;5107744;28;20020;-37
2021/06/04 17:36:20;;;;;;;2.42;1.95;;;;;;;18.06;59.01;94153.66;5124772;27;20046;-38
2021/06/04 17:38:45;;;;;;;2.33;2.10;;;;;;;17.90;59.83;94146.09;5124383;27;20139;-37
2021/06/04 17:41:11;;;;;;;5.38;2.75;;;;;;;18.01;60.36;94163.06;5124514;27;20023;-37
2021/06/04 17:43:36;;;;;;;7.47;3.42;;;;;;;17.99;59.93;94164.97;5124311;27;20031;-37
2021/06/04 17:46:02;;;;;;;7.90;3.47;;;;;;;17.98;59.83;94169.06;5110848;27;20062;-38
2021/06/04 17:48:27;;;;;;;9.13;4.72;;;;;;;18.05;60.27;94177.34;5103222;28;20042;-37
2021/06/04 17:50:56;;;;;;;8.70;4.20;;;;;;;18.06;60.08;94176.00;5093155;28;20024;-40
2021/06/04 17:53:23;;;;;;;5.38;3.60;;;;;;;18.08;60.67;94176.16;5089261;28;20034;-38
2021/06/04 17:55:49;;;;;;;9.93;2.70;;;;;;;18.03;59.31;94170.84;5089716;28;20455;-38
2021/06/04 17:58:17;;;;;;;5.65;2.22;;;;;;;17.99;60.47;94170.56;5089148;28;20039;-38
2021/06/04 18:00:43;;;;;;;3.45;3.15;;;;;;;17.79;60.62;94175.28;5087738;28;20507;-37
2021/06/04 18:03:09;;;;;;;12.88;7.05;;;;;;;17.73;61.14;94174.81;5087329;28;20506;-37
2021/06/04 18:05:38;;;;;;;13.15;6.00;;;;;;;17.58;60.99;94161.06;5088289;28;20473;-37
2021/06/04 18:08:04;;;;;;;6.85;5.13;;;;;;;17.67;60.63;94174.31;5089138;28;20495;-37
2021/06/04 18:10:30;;;;;;;29.25;15.20;;;;;;;17.35;61.25;94174.50;5089309;28;20108;-38
2021/06/04 18:12:55;;;;;;;15.35;8.07;;;;;;;17.46;62.16;94182.38;5089253;28;20414;-38
2021/06/04 18:15:25;;;;;;;15.90;8.40;;;;;;;17.37;63.37;94185.81;5089125;28;20028;-38
2021/06/04 18:17:50;;;;;;;12.00;6.55;;;;;;;17.27;62.41;94182.22;5088945;28;20024;-37
2021/06/04 18:20:17;;;;;;;20.50;9.57;;;;;;;17.06;62.49;94165.16;5088896;28;20098;-37
2021/06/04 18:22:43;;;;;;;10.05;6.63;;;;;;;17.00;63.11;94173.75;5089530;28;20035;-38
2021/06/04 18:25:20;;;;;;;6.95;4.85;;;;;;;17.03;63.50;94189.38;5094502;28;20021;-38
2021/06/04 18:27:47;;;;;;;4.25;3.10;;;;;;;16.99;62.61;94188.28;5092794;28;20067;-39
2021/06/04 18:30:16;;;;;;;2.30;1.83;;;;;;;16.78;63.86;94182.38;5090058;28;20024;-38
2021/06/04 18:32:41;;;;;;;;;;;;;;;16.57;64.86;94189.06;5087504;28;20046;-39
2021/06/04 18:35:10;;;;;;;1.98;1.77;;;;;;;16.48;64.99;94192.44;5089020;28;19919;-38
2021/06/04 18:37:37;;;;;;;3.28;2.00;;;;;;;16.60;64.77;94190.72;5088070;28;20106;-37
2021/06/04 18:40:08;;;;;;;5.13;2.47;;;;;;;16.36;65.76;94197.00;5088098;28;20147;-38
2021/06/04 18:42:34;;;;;;;3.42;2.35;;;;;;;16.42;65.58;94197.50;5088655;28;20119;-37
2021/06/04 18:44:59;;;;;;;5.53;2.75;;;;;;;16.32;66.18;94201.50;5088769;28;20135;-40
2021/06/04 18:47:25;;;;;;;10.52;5.60;;;;;;;16.26;66.18;94201.72;5088823;28;20472;-37
2021/06/04 18:49:52;;;;;;;16.60;10.77;;;;;;;16.29;65.45;94199.84;5087111;28;20452;-37
2021/06/04 18:52:19;;;;;;;9.10;6.68;;;;;;;16.34;65.83;94207.25;5087272;28;20031;-38
2021/06/04 18:54:46;;;;;;;7.90;5.25;;;;;;;16.40;66.28;94210.53;5092689;28;20392;-38
2021/06/04 18:57:12;;;;;;;24.38;9.43;;;;;;;16.17;66.73;94210.72;5088389;28;20483;-36
2021/06/04 18:59:37;;;;;;;10.75;6.72;;;;;;;15.93;67.61;94222.53;5107499;28;20028;-36
2021/06/04 19:02:03;;;;;;;7.10;3.95;;;;;;;15.77;68.06;94223.91;5106593;28;20408;-37
2021/06/04 19:04:29;;;;;;;8.43;3.55;;;;;;;15.65;68.50;94225.66;5104674;28;20506;-37
2021/06/04 19:06:54;;;;;;;6.78;4.07;;;;;;;15.69;68.32;94228.78;5088314;28;20059;-37
2021/06/04 19:09:20;;;;;;;6.63;3.35;;;;;;;15.84;66.42;94229.47;5087310;28;20073;-37
2021/06/04 19:11:45;;;;;;;6.35;3.20;;;;;;;15.78;66.88;94230.97;5088576;28;20016;-37
2021/06/04 19:14:13;;;;;;;7.32;4.18;;;;;;;15.48;68.03;94234.63;5089098;28;20028;-37
2021/06/04 19:16:40;;;;;;;3.30;2.50;;;;;;;15.26;68.23;94232.63;5088816;28;20142;-37
2021/06/04 19:19:06;;;;;;;4.10;3.35;;;;;;;15.10;68.58;94242.31;5088751;28;20517;-37
2021/06/04 19:21:32;;;;;;;6.45;3.20;;;;;;;15.07;68.87;94235.81;5088812;28;20028;-40
2021/06/04 19:23:59;;;;;;;3.13;2.05;;;;;;;15.13;68.77;94235.63;5088539;28;20786;-40
2021/06/04 19:26:25;;;;;;;7.18;3.00;;;;;;;15.16;68.38;94240.81;5088466;28;20115;-38
2021/06/04 19:28:51;;;;;;;5.97;3.67;;;;;;;15.11;68.29;94241.00;5088219;28;20028;-37
2021/06/04 19:31:16;;;;;;;8.00;4.18;;;;;;;15.02;68.24;94247.91;5087475;28;20074;-37
2021/06/04 19:33:45;;;;;;;6.07;3.72;;;;;;;14.92;68.55;94241.41;5087665;28;20026;-37
2021/06/04 19:36:13;;;;;;;5.60;3.08;;;;;;;14.94;68.79;94241.59;5087068;28;20462;-37
2021/06/04 19:38:45;;;;;;;7.35;2.45;;;;;;;14.87;68.97;94239.56;5087365;28;20047;-36
2021/06/04 19:41:16;;;;;;;3.30;2.35;;;;;;;14.74;69.71;94250.16;5088506;28;20036;-40
2021/06/04 19:43:43;;;;;;;6.85;3.90;;;;;;;14.79;69.31;94249.94;5088089;28;20042;-38
2021/06/04 19:46:09;;;;;;;20.45;8.05;;;;;;;14.74;69.13;94244.59;5088004;28;20506;-39
2021/06/04 19:48:35;;;;;;;25.15;7.10;;;;;;;14.77;68.64;94235.84;5088077;28;20032;-41
2021/06/04 19:51:03;;;;;;;10.88;6.75;;;;;;;14.91;68.44;94245.50;5087642;28;20024;-37
2021/06/04 19:53:29;;;;;;;8.77;5.18;;;;;;;14.71;68.75;94246.44;5087306;28;20515;-40
2021/06/04 19:55:54;;;;;;;7.25;4.53;;;;;;;14.53;69.61;94260.72;5087397;28;20096;-38
2021/06/04 19:58:21;;;;;;;13.68;6.03;;;;;;;14.37;70.54;94249.59;5087559;28;20028;-40
2021/06/04 20:00:47;;;;;;;10.00;4.05;;;;;;;14.19;70.98;94244.34;5086944;28;20035;-40
2021/06/04 20:03:16;;;;;;;5.30;4.40;;;;;;;14.15;71.20;94246.75;5086100;28;20028;-39
2021/06/04 20:05:43;;;;;;;8.73;4.38;;;;;;;14.04;71.57;94245.06;5087572;28;20039;-38
2021/06/04 20:08:09;;;;;;;10.13;5.95;;;;;;;13.96;71.90;94249.13;5087324;28;20454;-38
2021/06/04 20:10:36;;;;;;;11.25;5.32;;;;;;;13.96;71.71;94252.63;5086939;28;20028;-38
2021/06/04 20:13:04;;;;;;;9.98;5.53;;;;;;;14.02;71.62;94241.34;5086862;28;20028;-37
2021/06/04 20:15:30;;;;;;;8.03;4.13;;;;;;;14.02;71.70;94244.88;5087249;28;20404;-38
2021/06/04 20:17:55;;;;;;;8.57;4.97;;;;;;;13.92;72.00;94251.50;5086788;28;20035;-37
2021/06/04 20:20:22;;;;;;;7.43;5.57;;;;;;;14.10;71.37;94240.06;5087268;28;20032;-39
2021/06/04 20:22:48;;;;;;;9.07;5.18;;;;;;;14.10;71.20;94250.44;5087206;28;20038;-39
2021/06/04 20:25:15;;;;;;;11.05;4.68;;;;;;;13.77;71.56;94243.16;5087672;28;20030;-37
2021/06/04 20:27:41;;;;;;;11.23;6.00;;;;;;;13.68;71.68;94252.75;5085374;28;20032;-37
2021/06/04 20:30:12;;;;;;;4.13;3.60;;;;;;;13.53;71.94;94249.91;5086480;28;20032;-37
2021/06/04 20:32:37;;;;;;;5.43;2.00;;;;;;;13.40;72.19;94238.94;5085963;28;20085;-37
2021/06/04 20:35:06;;;;;;;5.35;2.40;;;;;;;13.39;72.65;94248.53;5084696;28;20111;-43
2021/06/04 20:37:32;;;;;;;3.35;2.67;;;;;;;13.50;71.95;94248.97;5084451;28;20024;-42
2021/06/04 20:39:57;;;;;;;4.63;2.47;;;;;;;13.53;71.92;94247.88;5085336;28;20055;-42
2021/06/04 20:42:23;;;;;;;4.78;3.45;;;;;;;13.64;71.09;94238.47;5087465;28;20062;-38
2021/06/04 20:44:48;;;;;;;5.35;3.05;;;;;;;13.57;70.66;94226.06;5088491;28;20028;-38
2021/06/04 20:47:14;;;;;;;2.50;2.28;;;;;;;13.75;70.65;94245.72;5089817;28;20496;-43
2021/06/04 20:49:39;;;;;;;4.03;2.95;;;;;;;13.75;70.82;94248.50;5101111;28;20020;-40
2021/06/04 20:52:05;;;;;;;4.75;3.28;;;;;;;13.63;70.98;94243.28;5099961;28;20061;-38
2021/06/04 20:54:30;;;;;;;3.00;2.33;;;;;;;13.40;70.42;94231.38;5098783;28;20072;-40
2021/06/04 20:56:58;;;;;;;19.42;9.35;;;;;;;13.55;69.77;94244.56;5107924;28;20509;-38
2021/06/04 20:59:29;;;;;;;10.25;5.68;;;;;;;13.39;69.99;94245.75;5093226;28;20036;-38
2021/06/04 21:01:56;;;;;;;5.75;3.78;;;;;;;13.15;70.64;94246.94;5088575;28;20071;-39
2021/06/04 21:04:22;;;;;;;11.18;5.57;;;;;;;13.23;70.57;94239.41;5085815;28;20031;-38
2021/06/04 21:06:48;;;;;;;5.97;4.55;;;;;;;13.17;70.38;94238.81;5088138;28;20028;-40
2021/06/04 21:09:14;;;;;;;3.80;3.22;;;;;;;13.24;70.06;94240.16;5088462;28;20031;-39
2021/06/04 21:11:41;;;;;;;16.02;9.27;;;;;;;12.97;71.03;94245.16;5089164;28;20032;-40
2021/06/04 21:14:08;;;;;;;7.93;5.18;;;;;;;13.03;71.04;94242.22;5088987;28;20039;-38
2021/06/04 21:16:34;;;;;;;14.70;7.00;;;;;;;13.04;71.16;94240.94;5089185;28;20114;-38
2021/06/04 21:18:59;;;;;;;24.95;12.52;;;;;;;12.80;71.26;94236.53;5088833;28;20021;-40
2021/06/04 21:21:25;;;;;;;14.05;6.40;;;;;;;12.56;71.05;94239.72;5094091;28;20028;-40
2021/06/04 21:23:52;;;;;;;10.60;5.72;;;;;;;12.62;70.92;94234.75;5090920;28;20047;-40
2021/06/04 21:26:18;;;;;;;7.13;5.82;;;;;;;12.78;70.76;94241.88;5094880;28;20149;-38
2021/06/04 21:28:45;;;;;;;5.93;3.92;;;;;;;12.75;70.89;94242.97;5092201;28;20020;-38
2021/06/04 21:31:11;;;;;;;5.75;3.78;;;;;;;12.49;71.84;94241.13;5091920;28;20020;-38
2021/06/04 21:33:37;;;;;;;3.80;3.08;;;;;;;12.31;71.90;94233.78;5092268;28;20062;-38
2021/06/04 21:36:04;;;;;;;2.70;2.35;;;;;;;12.23;72.21;94235.00;5092455;28;20035;-38
2021/06/04 21:38:30;;;;;;;2.92;2.35;;;;;;;12.11;72.79;94240.78;5092464;28;20101;-38
2021/06/04 21:40:57;;;;;;;4.60;3.03;;;;;;;12.03;72.94;94234.47;5092688;28;20405;-38
2021/06/04 21:43:28;;;;;;;3.40;2.22;;;;;;;11.96;73.18;94237.88;5092544;28;20031;-37
2021/06/04 21:45:54;;;;;;;2.63;2.17;;;;;;;11.80;73.26;94236.25;5092023;28;20779;-43
2021/06/04 21:48:20;;;;;;;2.00;1.75;;;;;;;11.90;72.87;94231.00;5092280;28;20028;-38
2021/06/04 21:50:46;;;;;;;1.88;1.58;;;;;;;11.80;72.81;94233.47;5091585;28;20118;-37
2021/06/04 21:53:12;;;;;;;2.90;2.30;;;;;;;11.72;73.39;94235.44;5091513;28;20051;-37
2021/06/04 21:55:38;;;;;;;2.63;1.95;;;;;;;11.88;72.65;94239.84;5091288;28;20032;-37
2021/06/04 21:58:05;;;;;;;2.45;2.17;;;;;;;11.94;72.47;94240.44;5090390;28;20541;-38
2021/06/04 22:00:32;;;;;;;3.08;2.30;;;;;;;12.04;72.02;94235.94;5090689;28;20016;-37
2021/06/04 22:02:58;;;;;;;2.35;1.77;;;;;;;12.10;71.18;94235.81;5091197;28;20057;-38
2021/06/04 22:05:25;;;;;;;2.63;1.65;;;;;;;11.96;71.78;94235.13;5091990;28;20035;-37
2021/06/04 22:07:55;;;;;;;1.70;1.60;;;;;;;11.86;72.63;94236.88;5092349;28;20590;-37
2021/06/04 22:10:22;;;;;;;1.60;1.50;;;;;;;11.77;72.98;94234.56;5092319;28;20594;-37
2021/06/04 22:12:48;;;;;;;5.45;2.00;;;;;;;11.92;72.65;94226.41;5090683;28;20471;-37
2021/06/04 22:15:14;;;;;;;6.60;2.78;;;;;;;11.86;73.05;94236.88;5091922;28;20027;-38
2021/06/04 22:17:40;;;;;;;2.58;1.95;;;;;;;11.76;73.26;94224.03;5092190;28;20032;-37
2021/06/04 22:20:07;;;;;;;2.58;2.35;;;;;;;11.71;73.84;94217.34;5091322;28;20067;-37
2021/06/04 22:22:33;;;;;;;2.20;1.77;;;;;;;11.68;74.11;94223.19;5091716;28;20043;-38
2021/06/04 22:25:00;;;;;;;1.35;1.25;;;;;;;11.63;74.13;94226.81;5092010;28;20036;-38
2021/06/04 22:27:25;;;;;;;5.65;1.77;;;;;;;11.54;74.08;94218.97;5091634;28;20030;-39
2021/06/04 22:29:51;;;;;;;2.40;2.20;;;;;;;11.45;74.47;94209.13;5091657;28;20098;-38
2021/06/04 22:32:16;;;;;;;3.00;2.63;;;;;;;11.43;74.27;94215.16;5090837;28;20063;-38
2021/06/04 22:34:42;;;;;;;3.80;3.03;;;;;;;11.50;73.60;94218.56;5091638;28;20115;-38
2021/06/04 22:37:07;;;;;;;3.47;2.65;;;;;;;11.61;73.42;94215.56;5091525;28;20380;-38
2021/06/04 22:39:33;;;;;;;2.88;2.13;;;;;;;11.56;73.07;94216.41;5070898;28;20524;-37
2021/06/04 22:42:00;;;;;;;4.13;2.90;;;;;;;11.44;73.32;94202.84;5071320;28;20519;-38
2021/06/04 22:44:26;;;;;;;2.83;2.08;;;;;;;11.64;73.07;94217.97;5080892;28;20035;-39
2021/06/04 22:46:51;;;;;;;2.70;2.45;;;;;;;11.55;72.88;94210.13;5091348;28;20028;-39
2021/06/04 22:49:17;;;;;;;1.83;1.60;;;;;;;11.51;73.36;94195.16;5091251;28;20024;-39
2021/06/04 22:51:42;;;;;;;3.08;2.58;;;;;;;11.70;73.34;94207.56;5091684;28;20031;-36
2021/06/04 22:54:10;;;;;;;1.77;1.63;;;;;;;11.77;73.26;94206.91;5091016;28;20497;-37
2021/06/04 22:56:36;;;;;;;1.70;1.60;;;;;;;11.73;72.48;94202.97;5091202;28;20093;-36
2021/06/04 22:59:02;;;;;;;5.88;1.75;;;;;;;11.80;71.60;94191.97;5090690;28;20107;-36
2021/06/04 23:01:29;;;;;;;3.65;2.22;;;;;;;11.92;71.65;94189.69;5091483;28;20028;-36
2021/06/04 23:03:57;;;;;;;7.75;2.90;;;;;;;11.95;71.81;94185.84;5091035;28;20035;-36
2021/06/04 23:06:29;;;;;;;3.22;1.73;;;;;;;11.77;72.46;94173.69;5091271;28;20042;-36
2021/06/04 23:08:56;;;;;;;2.53;1.83;;;;;;;11.83;73.03;94179.09;5091181;28;20085;-36
2021/06/04 23:11:21;;;;;;;1.95;1.70;;;;;;;11.91;72.45;94177.88;5091110;28;20028;-35
2021/06/04 23:13:47;;;;;;;2.50;1.92;;;;;;;11.88;72.68;94178.97;5091101;28;20016;-36
2021/06/04 23:16:13;;;;;;;2.40;2.20;;;;;;;11.82;72.78;94180.38;5090959;28;20411;-36
2021/06/04 23:18:39;;;;;;;2.08;1.75;;;;;;;11.72;73.03;94171.81;5090939;28;20510;-36
2021/06/04 23:21:05;;;;;;;3.33;2.08;;;;;;;11.65;73.15;94157.88;5091012;28;20036;-36
2021/06/04 23:23:43;;;;;;;5.88;3.42;;;;;;;11.70;74.26;94170.84;5089529;28;20111;-37
2021/06/04 23:26:11;;;;;;;9.40;4.65;;;;;;;11.46;74.17;94169.09;5090776;28;20059;-36
2021/06/04 23:28:37;;;;;;;5.55;3.28;;;;;;;11.33;74.59;94175.44;5090445;28;20030;-36
2021/06/04 23:31:02;;;;;;;8.82;3.08;;;;;;;11.22;74.97;94172.16;5090105;28;20024;-37
2021/06/04 23:33:28;;;;;;;3.70;3.30;;;;;;;11.10;74.63;94168.16;5072365;28;20028;-36
2021/06/04 23:35:53;;;;;;;2.95;2.70;;;;;;;11.01;75.10;94165.81;5090540;28;20503;-38
2021/06/04 23:38:19;;;;;;;4.15;2.58;;;;;;;10.87;75.39;94153.31;5090111;28;20050;-38
2021/06/04 23:40:45;;;;;;;4.18;2.10;;;;;;;10.93;75.09;94162.22;5090657;28;20036;-38
2021/06/04 23:43:14;;;;;;;3.70;3.20;;;;;;;11.04;75.34;94162.00;5090493;28;20024;-37
2021/06/04 23:45:41;;;;;;;2.50;2.30;;;;;;;11.07;74.57;94158.91;5090578;28;20475;-38
2021/06/04 23:48:06;;;;;;;3.83;3.22;;;;;;;11.27;74.35;94168.53;5089754;28;20028;-38
2021/06/04 23:50:32;;;;;;;3.88;2.60;;;;;;;11.28;73.42;94170.03;5090523;28;20031;-38
2021/06/04 23:53:09;;;;;;;2.90;1.92;;;;;;;11.17;74.38;94167.50;5090056;28;20502;-38
2021/06/04 23:55:36;;;;;;;1.80;1.55;;;;;;;11.18;74.22;94175.25;5090405;28;20133;-38
2021/06/04 23:58:02;;;;;;;2.13;1.80;;;;;;;11.22;73.70;94169.38;5090047;28;20055;-38
